sensor_id;sensor_type;location;lat;lon;timestamp;temperature;humidity
3756;DHT22;1893;52.526;13.360;2023-04-24T00:00:03;12.80;99.90
3756;DHT22;1893;52.526;13.360;2023-04-24T00:02:34;12.80;99.90
3756;DHT22;1893;52.526;13.360;2023-04-24T00:05:03;12.80;99.90
3756;DHT22;1893;52.526;13.360;2023-04-24T00:07:29;12.80;1.00
3756;DHT22;1893;52.526;13.360;2023-04-24T00:09:55;12.70;1.00
3756;DHT22;1893;52.526;13.360;2023-04-24T00:12:21;12.70;1.00
3756;DHT22;1893;52.526;13.360;2023-04-24T00:14:46;12.60;1.00
3756;DHT22;1893;52.526;13.360;2023-04-24T00:17:12;12.60;1.00
3756;DHT22;1893;52.526;13.360;2023-04-24T00:19:38;12.60;1.00
3756;DHT22;1893;52.526;13.360;2023-04-24T00:22:04;12.60;1.00
3756;DHT22;1893;52.526;13.360;2023-04-24T00:24:30;12.60;1.00
3756;DHT22;1893;52.526;13.360;2023-04-24T00:26:56;12.50;1.00
3756;DHT22;1893;52.526;13.360;2023-04-24T00:29:21;12.50;31.10
3756;DHT22;1893;52.526;13.360;2023-04-24T00:31:47;12.50;94.80
3756;DHT22;1893;52.526;13.360;2023-04-24T00:34:12;12.50;89.30
3756;DHT22;1893;52.526;13.360;2023-04-24T00:36:38;12.50;99.90
3756;DHT22;1893;52.526;13.360;2023-04-24T00:39:04;12.40;99.90
3756;DHT22;1893;52.526;13.360;2023-04-24T00:41:30;12.40;99.90
3756;DHT22;1893;52.526;13.360;2023-04-24T00:43:56;12.40;99.90
3756;DHT22;1893;52.526;13.360;2023-04-24T00:46:21;12.40;99.90
3756;DHT22;1893;52.526;13.360;2023-04-24T00:48:47;12.30;1.00
3756;DHT22;1893;52.526;13.360;2023-04-24T00:51:13;12.30;1.00
3756;DHT22;1893;52.526;13.360;2023-04-24T00:53:38;12.30;1.00
3756;DHT22;1893;52.526;13.360;2023-04-24T00:56:04;12.30;1.00
3756;DHT22;1893;52.526;13.360;2023-04-24T00:58:30;12.30;1.00
3756;DHT22;1893;52.526;13.360;2023-04-24T01:00:57;12.30;1.00
3756;DHT22;1893;52.526;13.360;2023-04-24T01:03:26;12.30;1.00
3756;DHT22;1893;52.526;13.360;2023-04-24T01:05:54;12.30;1.00
3756;DHT22;1893;52.526;13.360;2023-04-24T01:08:22;12.30;1.00
3756;DHT22;1893;52.526;13.360;2023-04-24T01:10:52;12.20;1.00
3756;DHT22;1893;52.526;13.360;2023-04-24T01:13:21;12.20;17.90
3756;DHT22;1893;52.526;13.360;2023-04-24T01:15:47;12.20;99.90
3756;DHT22;1893;52.526;13.360;2023-04-24T01:18:13;12.20;69.10
3756;DHT22;1893;52.526;13.360;2023-04-24T01:20:43;12.10;99.90
3756;DHT22;1893;52.526;13.360;2023-04-24T01:23:10;12.00;99.90
3756;DHT22;1893;52.526;13.360;2023-04-24T01:25:37;12.00;1.00
3756;DHT22;1893;52.526;13.360;2023-04-24T01:28:03;12.00;1.00
3756;DHT22;1893;52.526;13.360;2023-04-24T01:30:29;12.00;1.00
3756;DHT22;1893;52.526;13.360;2023-04-24T01:32:55;12.00;1.00
3756;DHT22;1893;52.526;13.360;2023-04-24T01:35:21;12.10;1.00
3756;DHT22;1893;52.526;13.360;2023-04-24T01:37:47;12.00;1.00
3756;DHT22;1893;52.526;13.360;2023-04-24T01:40:13;12.10;1.00
3756;DHT22;1893;52.526;13.360;2023-04-24T01:42:40;12.10;1.00
3756;DHT22;1893;52.526;13.360;2023-04-24T01:45:06;12.10;1.00
3756;DHT22;1893;52.526;13.360;2023-04-24T01:47:35;12.10;1.00
3756;DHT22;1893;52.526;13.360;2023-04-24T01:50:00;12.10;26.10
3756;DHT22;1893;52.526;13.360;2023-04-24T01:52:26;12.00;67.60
3756;DHT22;1893;52.526;13.360;2023-04-24T01:54:52;11.90;99.90
3756;DHT22;1893;52.526;13.360;2023-04-24T01:57:18;12.00;1.00
3756;DHT22;1893;52.526;13.360;2023-04-24T01:59:44;11.90;1.00
3756;DHT22;1893;52.526;13.360;2023-04-24T02:02:09;11.90;1.00
3756;DHT22;1893;52.526;13.360;2023-04-24T02:04:35;11.90;1.00
3756;DHT22;1893;52.526;13.360;2023-04-24T02:07:00;11.90;1.00
3756;DHT22;1893;52.526;13.360;2023-04-24T02:09:26;11.90;1.00
3756;DHT22;1893;52.526;13.360;2023-04-24T02:11:52;11.90;1.00
3756;DHT22;1893;52.526;13.360;2023-04-24T02:14:17;11.90;99.90
3756;DHT22;1893;52.526;13.360;2023-04-24T02:16:43;11.90;99.90
3756;DHT22;1893;52.526;13.360;2023-04-24T02:19:09;11.90;99.90
3756;DHT22;1893;52.526;13.360;2023-04-24T02:21:35;11.80;99.90
3756;DHT22;1893;52.526;13.360;2023-04-24T02:24:00;11.80;99.90
3756;DHT22;1893;52.526;13.360;2023-04-24T02:26:26;11.80;99.90
3756;DHT22;1893;52.526;13.360;2023-04-24T02:28:52;11.80;99.90
3756;DHT22;1893;52.526;13.360;2023-04-24T02:31:17;11.80;1.00
3756;DHT22;1893;52.526;13.360;2023-04-24T02:33:43;11.80;1.00
3756;DHT22;1893;52.526;13.360;2023-04-24T02:36:08;11.80;1.00
3756;DHT22;1893;52.526;13.360;2023-04-24T02:38:34;11.80;1.00
3756;DHT22;1893;52.526;13.360;2023-04-24T02:41:00;11.80;1.00
3756;DHT22;1893;52.526;13.360;2023-04-24T02:43:27;11.80;1.00
3756;DHT22;1893;52.526;13.360;2023-04-24T02:45:53;11.80;1.00
3756;DHT22;1893;52.526;13.360;2023-04-24T02:48:18;11.90;1.00
3756;DHT22;1893;52.526;13.360;2023-04-24T02:50:46;11.80;1.00
3756;DHT22;1893;52.526;13.360;2023-04-24T02:53:11;11.80;1.00
3756;DHT22;1893;52.526;13.360;2023-04-24T02:55:37;11.80;1.00
3756;DHT22;1893;52.526;13.360;2023-04-24T02:58:02;11.80;1.00
3756;DHT22;1893;52.526;13.360;2023-04-24T03:02:55;11.70;1.00
3756;DHT22;1893;52.526;13.360;2023-04-24T03:05:21;11.70;1.00
3756;DHT22;1893;52.526;13.360;2023-04-24T03:07:46;11.70;1.00
3756;DHT22;1893;52.526;13.360;2023-04-24T03:10:12;11.70;1.00
3756;DHT22;1893;52.526;13.360;2023-04-24T03:12:38;11.70;1.00
3756;DHT22;1893;52.526;13.360;2023-04-24T03:15:03;11.70;2.80
3756;DHT22;1893;52.526;13.360;2023-04-24T03:17:29;11.70;19.70
3756;DHT22;1893;52.526;13.360;2023-04-24T03:19:55;11.70;6.40
3756;DHT22;1893;52.526;13.360;2023-04-24T03:22:20;11.70;1.00
3756;DHT22;1893;52.526;13.360;2023-04-24T03:24:46;11.70;1.00
3756;DHT22;1893;52.526;13.360;2023-04-24T03:27:11;11.90;1.00
3756;DHT22;1893;52.526;13.360;2023-04-24T03:29:37;11.80;1.00
3756;DHT22;1893;52.526;13.360;2023-04-24T03:32:03;11.80;1.00
3756;DHT22;1893;52.526;13.360;2023-04-24T03:34:28;11.90;1.00
3756;DHT22;1893;52.526;13.360;2023-04-24T03:36:54;11.90;1.00
3756;DHT22;1893;52.526;13.360;2023-04-24T03:39:20;11.90;1.00
3756;DHT22;1893;52.526;13.360;2023-04-24T03:41:45;11.90;1.00
3756;DHT22;1893;52.526;13.360;2023-04-24T03:44:11;11.90;1.00
3756;DHT22;1893;52.526;13.360;2023-04-24T03:46:36;11.90;1.00
3756;DHT22;1893;52.526;13.360;2023-04-24T03:49:02;11.90;1.00
3756;DHT22;1893;52.526;13.360;2023-04-24T03:51:27;11.90;1.00
3756;DHT22;1893;52.526;13.360;2023-04-24T03:53:55;11.90;1.00
3756;DHT22;1893;52.526;13.360;2023-04-24T03:56:21;12.00;1.00
3756;DHT22;1893;52.526;13.360;2023-04-24T03:58:46;12.00;1.00
3756;DHT22;1893;52.526;13.360;2023-04-24T04:01:12;12.00;1.00
3756;DHT22;1893;52.526;13.360;2023-04-24T04:03:38;12.00;1.00
3756;DHT22;1893;52.526;13.360;2023-04-24T04:06:04;12.00;1.00
3756;DHT22;1893;52.526;13.360;2023-04-24T04:08:30;12.00;1.00
3756;DHT22;1893;52.526;13.360;2023-04-24T04:10:55;12.00;99.90
3756;DHT22;1893;52.526;13.360;2023-04-24T04:13:21;12.10;99.90
3756;DHT22;1893;52.526;13.360;2023-04-24T04:15:47;12.00;99.90
3756;DHT22;1893;52.526;13.360;2023-04-24T04:18:12;12.10;99.90
3756;DHT22;1893;52.526;13.360;2023-04-24T04:20:38;12.10;99.90
3756;DHT22;1893;52.526;13.360;2023-04-24T04:23:03;12.10;99.90
3756;DHT22;1893;52.526;13.360;2023-04-24T04:25:29;12.10;99.90
3756;DHT22;1893;52.526;13.360;2023-04-24T04:27:54;12.10;99.90
3756;DHT22;1893;52.526;13.360;2023-04-24T04:30:20;12.20;29.40
3756;DHT22;1893;52.526;13.360;2023-04-24T04:32:46;12.20;1.00
3756;DHT22;1893;52.526;13.360;2023-04-24T04:35:11;12.30;1.00
3756;DHT22;1893;52.526;13.360;2023-04-24T04:37:37;12.20;1.00
3756;DHT22;1893;52.526;13.360;2023-04-24T04:40:03;12.20;1.00
3756;DHT22;1893;52.526;13.360;2023-04-24T04:42:33;12.20;1.00
3756;DHT22;1893;52.526;13.360;2023-04-24T04:45:08;12.30;1.00
3756;DHT22;1893;52.526;13.360;2023-04-24T04:47:34;12.30;1.00
3756;DHT22;1893;52.526;13.360;2023-04-24T04:50:00;12.30;99.90
3756;DHT22;1893;52.526;13.360;2023-04-24T04:52:26;12.30;99.90
3756;DHT22;1893;52.526;13.360;2023-04-24T04:54:52;12.40;99.90
3756;DHT22;1893;52.526;13.360;2023-04-24T04:57:18;12.40;99.90
3756;DHT22;1893;52.526;13.360;2023-04-24T04:59:43;12.40;24.40
3756;DHT22;1893;52.526;13.360;2023-04-24T05:02:09;12.40;1.00
3756;DHT22;1893;52.526;13.360;2023-04-24T05:04:35;12.40;1.00
3756;DHT22;1893;52.526;13.360;2023-04-24T05:07:00;12.50;1.00
3756;DHT22;1893;52.526;13.360;2023-04-24T05:09:26;12.50;1.00
3756;DHT22;1893;52.526;13.360;2023-04-24T05:11:53;12.50;1.00
3756;DHT22;1893;52.526;13.360;2023-04-24T05:14:18;12.50;1.00
3756;DHT22;1893;52.526;13.360;2023-04-24T05:16:44;12.50;1.00
3756;DHT22;1893;52.526;13.360;2023-04-24T05:19:10;12.60;1.00
3756;DHT22;1893;52.526;13.360;2023-04-24T05:21:37;12.60;1.00
3756;DHT22;1893;52.526;13.360;2023-04-24T05:24:02;12.60;99.90
3756;DHT22;1893;52.526;13.360;2023-04-24T05:26:28;12.60;99.90
3756;DHT22;1893;52.526;13.360;2023-04-24T05:28:54;12.60;99.90
3756;DHT22;1893;52.526;13.360;2023-04-24T05:31:20;12.70;99.90
3756;DHT22;1893;52.526;13.360;2023-04-24T05:33:46;12.80;98.90
3756;DHT22;1893;52.526;13.360;2023-04-24T05:36:11;12.80;1.00
3756;DHT22;1893;52.526;13.360;2023-04-24T05:38:37;12.90;1.00
3756;DHT22;1893;52.526;13.360;2023-04-24T05:41:03;12.90;1.00
3756;DHT22;1893;52.526;13.360;2023-04-24T05:43:28;12.90;1.00
3756;DHT22;1893;52.526;13.360;2023-04-24T05:45:54;12.90;1.00
3756;DHT22;1893;52.526;13.360;2023-04-24T05:48:20;12.90;1.00
3756;DHT22;1893;52.526;13.360;2023-04-24T05:50:47;12.90;99.90
3756;DHT22;1893;52.526;13.360;2023-04-24T05:53:13;12.80;99.90
3756;DHT22;1893;52.526;13.360;2023-04-24T05:55:39;12.90;99.90
3756;DHT22;1893;52.526;13.360;2023-04-24T05:58:05;12.80;99.90
3756;DHT22;1893;52.526;13.360;2023-04-24T06:00:31;12.90;99.90
3756;DHT22;1893;52.526;13.360;2023-04-24T06:02:57;13.00;99.90
3756;DHT22;1893;52.526;13.360;2023-04-24T06:05:24;13.00;99.90
3756;DHT22;1893;52.526;13.360;2023-04-24T06:07:49;13.20;99.90
3756;DHT22;1893;52.526;13.360;2023-04-24T06:10:15;13.20;1.00
3756;DHT22;1893;52.526;13.360;2023-04-24T06:12:41;13.20;1.00
3756;DHT22;1893;52.526;13.360;2023-04-24T06:15:07;13.30;1.00
3756;DHT22;1893;52.526;13.360;2023-04-24T06:17:33;13.40;1.00
3756;DHT22;1893;52.526;13.360;2023-04-24T06:19:59;13.50;1.00
3756;DHT22;1893;52.526;13.360;2023-04-24T06:22:24;13.30;1.00
3756;DHT22;1893;52.526;13.360;2023-04-24T06:24:50;13.30;1.00
3756;DHT22;1893;52.526;13.360;2023-04-24T06:27:16;13.40;1.00
3756;DHT22;1893;52.526;13.360;2023-04-24T06:29:41;13.50;1.00
3756;DHT22;1893;52.526;13.360;2023-04-24T06:32:07;13.70;99.90
3756;DHT22;1893;52.526;13.360;2023-04-24T06:34:33;13.80;99.90
3756;DHT22;1893;52.526;13.360;2023-04-24T06:36:59;14.10;99.90
3756;DHT22;1893;52.526;13.360;2023-04-24T06:39:25;14.40;30.90
3756;DHT22;1893;52.526;13.360;2023-04-24T06:41:51;14.80;1.00
3756;DHT22;1893;52.526;13.360;2023-04-24T06:44:16;14.90;1.00
3756;DHT22;1893;52.526;13.360;2023-04-24T06:46:42;14.70;1.00
3756;DHT22;1893;52.526;13.360;2023-04-24T06:49:08;14.70;1.00
3756;DHT22;1893;52.526;13.360;2023-04-24T06:51:33;14.70;99.90
3756;DHT22;1893;52.526;13.360;2023-04-24T06:53:59;14.90;99.90
3756;DHT22;1893;52.526;13.360;2023-04-24T06:56:25;14.90;99.90
3756;DHT22;1893;52.526;13.360;2023-04-24T06:58:51;14.90;99.90
3756;DHT22;1893;52.526;13.360;2023-04-24T07:01:17;15.20;99.90
3756;DHT22;1893;52.526;13.360;2023-04-24T07:03:43;15.30;1.00
3756;DHT22;1893;52.526;13.360;2023-04-24T07:06:09;15.40;1.00
3756;DHT22;1893;52.526;13.360;2023-04-24T07:08:36;15.30;1.00
3756;DHT22;1893;52.526;13.360;2023-04-24T07:11:02;15.50;1.00
3756;DHT22;1893;52.526;13.360;2023-04-24T07:13:28;15.40;1.00
3756;DHT22;1893;52.526;13.360;2023-04-24T07:15:54;15.60;1.00
3756;DHT22;1893;52.526;13.360;2023-04-24T07:18:21;16.20;1.00
3756;DHT22;1893;52.526;13.360;2023-04-24T07:20:47;16.20;1.00
3756;DHT22;1893;52.526;13.360;2023-04-24T07:23:12;16.70;1.00
3756;DHT22;1893;52.526;13.360;2023-04-24T07:25:38;16.90;1.00
3756;DHT22;1893;52.526;13.360;2023-04-24T07:28:04;16.70;99.90
3756;DHT22;1893;52.526;13.360;2023-04-24T07:30:31;16.70;99.90
3756;DHT22;1893;52.526;13.360;2023-04-24T07:32:58;16.60;99.90
3756;DHT22;1893;52.526;13.360;2023-04-24T07:35:24;16.10;99.90
3756;DHT22;1893;52.526;13.360;2023-04-24T07:37:52;16.50;99.90
3756;DHT22;1893;52.526;13.360;2023-04-24T07:40:18;16.50;1.00
3756;DHT22;1893;52.526;13.360;2023-04-24T07:42:44;17.30;1.00
3756;DHT22;1893;52.526;13.360;2023-04-24T07:45:09;17.40;1.00
3756;DHT22;1893;52.526;13.360;2023-04-24T07:47:35;17.60;1.00
3756;DHT22;1893;52.526;13.360;2023-04-24T07:50:02;17.30;99.90
3756;DHT22;1893;52.526;13.360;2023-04-24T07:52:28;18.00;99.90
3756;DHT22;1893;52.526;13.360;2023-04-24T07:54:55;18.40;99.90
3756;DHT22;1893;52.526;13.360;2023-04-24T07:57:24;18.50;99.90
3756;DHT22;1893;52.526;13.360;2023-04-24T07:59:50;18.00;99.90
3756;DHT22;1893;52.526;13.360;2023-04-24T08:02:16;18.10;99.90
3756;DHT22;1893;52.526;13.360;2023-04-24T08:04:43;18.30;99.90
3756;DHT22;1893;52.526;13.360;2023-04-24T08:07:08;18.00;99.90
3756;DHT22;1893;52.526;13.360;2023-04-24T08:09:34;18.30;99.90
3756;DHT22;1893;52.526;13.360;2023-04-24T08:12:00;18.90;99.90
3756;DHT22;1893;52.526;13.360;2023-04-24T08:14:26;18.70;99.90
3756;DHT22;1893;52.526;13.360;2023-04-24T08:16:54;19.20;99.90
3756;DHT22;1893;52.526;13.360;2023-04-24T08:19:21;18.40;99.90
3756;DHT22;1893;52.526;13.360;2023-04-24T08:21:46;17.90;99.90
3756;DHT22;1893;52.526;13.360;2023-04-24T08:24:12;18.20;99.90
3756;DHT22;1893;52.526;13.360;2023-04-24T08:26:38;17.60;99.90
3756;DHT22;1893;52.526;13.360;2023-04-24T08:29:04;17.80;99.90
3756;DHT22;1893;52.526;13.360;2023-04-24T08:31:29;17.20;99.90
3756;DHT22;1893;52.526;13.360;2023-04-24T08:33:55;17.20;99.90
3756;DHT22;1893;52.526;13.360;2023-04-24T08:36:21;17.40;99.90
3756;DHT22;1893;52.526;13.360;2023-04-24T08:38:47;17.90;99.90
3756;DHT22;1893;52.526;13.360;2023-04-24T08:41:14;17.90;99.90
3756;DHT22;1893;52.526;13.360;2023-04-24T08:43:41;17.90;99.90
3756;DHT22;1893;52.526;13.360;2023-04-24T08:46:07;17.30;99.90
3756;DHT22;1893;52.526;13.360;2023-04-24T08:48:34;17.20;99.90
3756;DHT22;1893;52.526;13.360;2023-04-24T08:51:00;17.30;99.90
3756;DHT22;1893;52.526;13.360;2023-04-24T08:53:27;17.30;99.90
3756;DHT22;1893;52.526;13.360;2023-04-24T08:55:54;17.50;99.90
3756;DHT22;1893;52.526;13.360;2023-04-24T08:58:20;17.80;99.90
3756;DHT22;1893;52.526;13.360;2023-04-24T09:00:47;17.90;99.90
3756;DHT22;1893;52.526;13.360;2023-04-24T09:03:15;18.40;99.90
3756;DHT22;1893;52.526;13.360;2023-04-24T09:05:46;18.10;99.90
3756;DHT22;1893;52.526;13.360;2023-04-24T09:08:16;17.80;99.90
3756;DHT22;1893;52.526;13.360;2023-04-24T09:10:43;17.50;99.90
3756;DHT22;1893;52.526;13.360;2023-04-24T09:13:09;17.30;99.90
3756;DHT22;1893;52.526;13.360;2023-04-24T09:15:38;17.30;99.90
3756;DHT22;1893;52.526;13.360;2023-04-24T09:18:04;16.80;99.90
3756;DHT22;1893;52.526;13.360;2023-04-24T09:20:31;16.60;99.90
3756;DHT22;1893;52.526;13.360;2023-04-24T09:22:57;16.60;99.90
3756;DHT22;1893;52.526;13.360;2023-04-24T09:25:30;16.60;99.90
3756;DHT22;1893;52.526;13.360;2023-04-24T09:28:03;16.80;99.90
3756;DHT22;1893;52.526;13.360;2023-04-24T09:30:29;16.80;99.90
3756;DHT22;1893;52.526;13.360;2023-04-24T09:33:15;17.10;99.90
3756;DHT22;1893;52.526;13.360;2023-04-24T09:35:42;17.00;99.90
3756;DHT22;1893;52.526;13.360;2023-04-24T09:38:08;16.80;99.90
3756;DHT22;1893;52.526;13.360;2023-04-24T09:40:35;16.60;99.90
3756;DHT22;1893;52.526;13.360;2023-04-24T09:43:01;16.60;99.90
3756;DHT22;1893;52.526;13.360;2023-04-24T09:45:34;16.60;99.90
3756;DHT22;1893;52.526;13.360;2023-04-24T09:48:00;16.90;99.90
3756;DHT22;1893;52.526;13.360;2023-04-24T09:50:26;17.00;99.90
3756;DHT22;1893;52.526;13.360;2023-04-24T09:53:03;16.80;99.90
3756;DHT22;1893;52.526;13.360;2023-04-24T09:55:29;17.20;99.90
3756;DHT22;1893;52.526;13.360;2023-04-24T09:57:59;17.50;99.90
3756;DHT22;1893;52.526;13.360;2023-04-24T10:00:33;17.50;99.90
3756;DHT22;1893;52.526;13.360;2023-04-24T10:03:03;17.50;99.90
3756;DHT22;1893;52.526;13.360;2023-04-24T10:05:34;18.10;99.90
3756;DHT22;1893;52.526;13.360;2023-04-24T10:08:05;18.30;99.90
3756;DHT22;1893;52.526;13.360;2023-04-24T10:10:31;19.00;99.90
3756;DHT22;1893;52.526;13.360;2023-04-24T10:12:57;19.90;99.90
3756;DHT22;1893;52.526;13.360;2023-04-24T10:15:24;19.30;99.90
3756;DHT22;1893;52.526;13.360;2023-04-24T10:17:51;19.00;99.90
3756;DHT22;1893;52.526;13.360;2023-04-24T10:20:25;19.20;99.90
3756;DHT22;1893;52.526;13.360;2023-04-24T10:22:53;19.00;99.90
3756;DHT22;1893;52.526;13.360;2023-04-24T10:25:21;18.60;99.90
3756;DHT22;1893;52.526;13.360;2023-04-24T10:27:48;18.00;99.90
3756;DHT22;1893;52.526;13.360;2023-04-24T10:30:15;18.00;99.90
3756;DHT22;1893;52.526;13.360;2023-04-24T10:32:40;17.70;99.90
3756;DHT22;1893;52.526;13.360;2023-04-24T10:35:07;18.20;99.90
3756;DHT22;1893;52.526;13.360;2023-04-24T10:37:45;18.40;99.90
3756;DHT22;1893;52.526;13.360;2023-04-24T10:40:16;17.60;99.90
3756;DHT22;1893;52.526;13.360;2023-04-24T10:42:42;17.10;99.90
3756;DHT22;1893;52.526;13.360;2023-04-24T10:45:19;16.80;99.90
3756;DHT22;1893;52.526;13.360;2023-04-24T10:48:03;16.80;99.90
3756;DHT22;1893;52.526;13.360;2023-04-24T10:50:41;16.80;99.90
3756;DHT22;1893;52.526;13.360;2023-04-24T10:53:11;16.70;99.90
3756;DHT22;1893;52.526;13.360;2023-04-24T10:58:12;16.70;99.90
3756;DHT22;1893;52.526;13.360;2023-04-24T11:00:40;16.70;99.90
3756;DHT22;1893;52.526;13.360;2023-04-24T11:03:30;16.80;99.90
3756;DHT22;1893;52.526;13.360;2023-04-24T11:06:09;17.00;99.90
3756;DHT22;1893;52.526;13.360;2023-04-24T11:08:43;18.00;99.90
3756;DHT22;1893;52.526;13.360;2023-04-24T11:11:17;19.20;99.90
3756;DHT22;1893;52.526;13.360;2023-04-24T11:19:08;18.90;99.90
3756;DHT22;1893;52.526;13.360;2023-04-24T11:21:57;19.40;99.90
3756;DHT22;1893;52.526;13.360;2023-04-24T11:24:37;19.50;99.90
3756;DHT22;1893;52.526;13.360;2023-04-24T11:29:41;18.30;99.90
3756;DHT22;1893;52.526;13.360;2023-04-24T11:32:19;17.60;99.90
3756;DHT22;1893;52.526;13.360;2023-04-24T11:34:49;17.20;99.90
3756;DHT22;1893;52.526;13.360;2023-04-24T11:37:16;16.50;99.90
3756;DHT22;1893;52.526;13.360;2023-04-24T11:39:42;16.30;99.90
3756;DHT22;1893;52.526;13.360;2023-04-24T11:42:09;16.10;99.90
3756;DHT22;1893;52.526;13.360;2023-04-24T11:44:35;16.10;99.90
3756;DHT22;1893;52.526;13.360;2023-04-24T11:47:06;16.10;99.90
3756;DHT22;1893;52.526;13.360;2023-04-24T11:49:33;16.10;99.90
3756;DHT22;1893;52.526;13.360;2023-04-24T11:52:00;16.10;99.90
3756;DHT22;1893;52.526;13.360;2023-04-24T11:54:26;16.40;99.90
3756;DHT22;1893;52.526;13.360;2023-04-24T11:56:52;16.40;99.90
3756;DHT22;1893;52.526;13.360;2023-04-24T11:59:18;16.90;99.90
3756;DHT22;1893;52.526;13.360;2023-04-24T12:01:47;18.00;99.90
3756;DHT22;1893;52.526;13.360;2023-04-24T12:04:13;17.80;99.90
3756;DHT22;1893;52.526;13.360;2023-04-24T12:06:39;17.60;99.90
3756;DHT22;1893;52.526;13.360;2023-04-24T12:09:05;18.00;99.90
3756;DHT22;1893;52.526;13.360;2023-04-24T12:11:31;18.20;99.90
3756;DHT22;1893;52.526;13.360;2023-04-24T12:13:57;18.40;99.90
3756;DHT22;1893;52.526;13.360;2023-04-24T12:16:24;18.40;99.90
3756;DHT22;1893;52.526;13.360;2023-04-24T12:18:51;18.60;99.90
3756;DHT22;1893;52.526;13.360;2023-04-24T12:21:17;19.00;99.90
3756;DHT22;1893;52.526;13.360;2023-04-24T12:23:44;18.20;99.90
3756;DHT22;1893;52.526;13.360;2023-04-24T12:26:11;17.80;99.90
3756;DHT22;1893;52.526;13.360;2023-04-24T12:28:38;18.00;99.90
3756;DHT22;1893;52.526;13.360;2023-04-24T12:31:04;17.80;99.90
3756;DHT22;1893;52.526;13.360;2023-04-24T12:33:35;17.80;99.90
3756;DHT22;1893;52.526;13.360;2023-04-24T12:36:01;18.10;99.90
3756;DHT22;1893;52.526;13.360;2023-04-24T12:38:28;18.60;99.90
3756;DHT22;1893;52.526;13.360;2023-04-24T12:41:10;18.90;99.90
3756;DHT22;1893;52.526;13.360;2023-04-24T12:43:36;19.00;99.90
3756;DHT22;1893;52.526;13.360;2023-04-24T12:46:02;19.30;99.90
3756;DHT22;1893;52.526;13.360;2023-04-24T12:48:28;19.60;99.90
3756;DHT22;1893;52.526;13.360;2023-04-24T12:50:54;19.20;99.90
3756;DHT22;1893;52.526;13.360;2023-04-24T12:53:21;19.30;99.90
3756;DHT22;1893;52.526;13.360;2023-04-24T12:55:47;19.10;99.90
3756;DHT22;1893;52.526;13.360;2023-04-24T12:58:19;18.60;99.90
3756;DHT22;1893;52.526;13.360;2023-04-24T13:00:45;18.60;99.90
3756;DHT22;1893;52.526;13.360;2023-04-24T13:03:12;18.50;99.90
3756;DHT22;1893;52.526;13.360;2023-04-24T13:05:37;18.60;99.90
3756;DHT22;1893;52.526;13.360;2023-04-24T13:08:03;18.80;99.90
3756;DHT22;1893;52.526;13.360;2023-04-24T13:10:29;18.80;99.90
3756;DHT22;1893;52.526;13.360;2023-04-24T13:12:54;18.80;99.90
3756;DHT22;1893;52.526;13.360;2023-04-24T13:15:20;18.50;99.90
3756;DHT22;1893;52.526;13.360;2023-04-24T13:17:46;18.80;99.90
3756;DHT22;1893;52.526;13.360;2023-04-24T13:20:11;19.30;99.90
3756;DHT22;1893;52.526;13.360;2023-04-24T13:22:37;19.40;99.90
3756;DHT22;1893;52.526;13.360;2023-04-24T13:25:03;18.80;99.90
3756;DHT22;1893;52.526;13.360;2023-04-24T13:27:28;18.70;99.90
3756;DHT22;1893;52.526;13.360;2023-04-24T13:29:54;18.30;99.90
3756;DHT22;1893;52.526;13.360;2023-04-24T13:32:20;18.30;99.90
3756;DHT22;1893;52.526;13.360;2023-04-24T13:34:45;18.10;99.90
3756;DHT22;1893;52.526;13.360;2023-04-24T13:37:11;17.80;99.90
3756;DHT22;1893;52.526;13.360;2023-04-24T13:39:37;17.80;99.90
3756;DHT22;1893;52.526;13.360;2023-04-24T13:42:03;17.40;99.90
3756;DHT22;1893;52.526;13.360;2023-04-24T13:44:28;17.50;99.90
3756;DHT22;1893;52.526;13.360;2023-04-24T13:46:55;17.40;99.90
3756;DHT22;1893;52.526;13.360;2023-04-24T13:49:22;17.60;99.90
3756;DHT22;1893;52.526;13.360;2023-04-24T13:51:50;17.70;99.90
3756;DHT22;1893;52.526;13.360;2023-04-24T13:54:15;17.90;99.90
3756;DHT22;1893;52.526;13.360;2023-04-24T13:56:41;18.60;99.90
3756;DHT22;1893;52.526;13.360;2023-04-24T13:59:07;18.70;99.90
3756;DHT22;1893;52.526;13.360;2023-04-24T14:01:33;18.50;99.90
3756;DHT22;1893;52.526;13.360;2023-04-24T14:03:59;18.40;99.90
3756;DHT22;1893;52.526;13.360;2023-04-24T14:06:25;17.70;99.90
3756;DHT22;1893;52.526;13.360;2023-04-24T14:08:51;17.50;99.90
3756;DHT22;1893;52.526;13.360;2023-04-24T14:11:17;17.70;99.90
3756;DHT22;1893;52.526;13.360;2023-04-24T14:13:43;17.90;99.90
3756;DHT22;1893;52.526;13.360;2023-04-24T14:16:09;17.70;99.90
3756;DHT22;1893;52.526;13.360;2023-04-24T14:18:35;17.50;99.90
3756;DHT22;1893;52.526;13.360;2023-04-24T14:21:02;17.40;99.90
3756;DHT22;1893;52.526;13.360;2023-04-24T14:23:28;17.10;99.90
3756;DHT22;1893;52.526;13.360;2023-04-24T14:25:53;17.20;99.90
3756;DHT22;1893;52.526;13.360;2023-04-24T14:28:20;17.50;99.90
3756;DHT22;1893;52.526;13.360;2023-04-24T14:30:46;17.60;99.90
3756;DHT22;1893;52.526;13.360;2023-04-24T14:33:11;17.90;99.90
3756;DHT22;1893;52.526;13.360;2023-04-24T14:35:38;18.20;99.90
3756;DHT22;1893;52.526;13.360;2023-04-24T14:38:05;18.40;99.90
3756;DHT22;1893;52.526;13.360;2023-04-24T14:40:30;18.50;98.90
3756;DHT22;1893;52.526;13.360;2023-04-24T14:42:57;18.50;98.90
3756;DHT22;1893;52.526;13.360;2023-04-24T14:45:24;18.10;98.20
3756;DHT22;1893;52.526;13.360;2023-04-24T14:47:50;18.20;98.90
3756;DHT22;1893;52.526;13.360;2023-04-24T14:50:15;18.30;99.50
3756;DHT22;1893;52.526;13.360;2023-04-24T14:52:42;18.20;98.90
3756;DHT22;1893;52.526;13.360;2023-04-24T14:55:08;18.00;99.00
3756;DHT22;1893;52.526;13.360;2023-04-24T14:57:34;17.60;98.70
3756;DHT22;1893;52.526;13.360;2023-04-24T15:00:01;17.30;99.60
3756;DHT22;1893;52.526;13.360;2023-04-24T15:02:27;17.10;99.90
3756;DHT22;1893;52.526;13.360;2023-04-24T15:04:52;17.40;99.90
3756;DHT22;1893;52.526;13.360;2023-04-24T15:07:18;17.50;99.90
3756;DHT22;1893;52.526;13.360;2023-04-24T15:09:43;17.40;99.70
3756;DHT22;1893;52.526;13.360;2023-04-24T15:12:09;17.30;99.90
3756;DHT22;1893;52.526;13.360;2023-04-24T15:14:35;17.20;99.90
3756;DHT22;1893;52.526;13.360;2023-04-24T15:17:00;17.10;99.90
3756;DHT22;1893;52.526;13.360;2023-04-24T15:19:26;17.50;99.90
3756;DHT22;1893;52.526;13.360;2023-04-24T15:21:52;17.90;99.90
3756;DHT22;1893;52.526;13.360;2023-04-24T15:24:17;18.50;99.60
3756;DHT22;1893;52.526;13.360;2023-04-24T15:26:43;18.50;99.80
3756;DHT22;1893;52.526;13.360;2023-04-24T15:29:09;17.30;98.30
3756;DHT22;1893;52.526;13.360;2023-04-24T15:31:34;16.70;99.30
3756;DHT22;1893;52.526;13.360;2023-04-24T15:34:00;16.50;99.50
3756;DHT22;1893;52.526;13.360;2023-04-24T15:36:26;16.20;99.90
3756;DHT22;1893;52.526;13.360;2023-04-24T15:38:51;16.10;99.90
3756;DHT22;1893;52.526;13.360;2023-04-24T15:41:17;16.00;99.90
3756;DHT22;1893;52.526;13.360;2023-04-24T15:43:42;16.00;99.90
3756;DHT22;1893;52.526;13.360;2023-04-24T15:46:09;15.90;99.90
3756;DHT22;1893;52.526;13.360;2023-04-24T15:48:35;16.00;99.90
3756;DHT22;1893;52.526;13.360;2023-04-24T15:51:01;16.00;99.90
3756;DHT22;1893;52.526;13.360;2023-04-24T15:53:27;16.10;99.90
3756;DHT22;1893;52.526;13.360;2023-04-24T15:55:53;16.30;99.90
3756;DHT22;1893;52.526;13.360;2023-04-24T15:58:22;16.10;99.90